Time;durP1;ratioP1;P1;durP2;ratioP2;P2;SDS_P1;SDS_P2;PMS_P1;PMS_P2;Temp;Humidity;BMP_temperature;BMP_pressure;BME280_temperature;BME280_humidity;BME280_pressure;Samples;Min_cycle;Max_cycle;Signal;HPM_P1;HPM_P2
2021/09/16 00:00:17;;;;;;;6.80;1.02;;;;;;;15.79;76.25;101243.72;5003689;28;20061;-76
2021/09/16 00:02:43;;;;;;;3.40;0.82;;;;;;;15.76;76.40;101247.47;5024203;28;20029;-77
2021/09/16 00:05:10;;;;;;;4.38;0.98;;;;;;;15.73;76.40;101234.75;5013590;28;20030;-77
2021/09/16 00:07:35;;;;;;;6.95;0.90;;;;;;;15.71;76.33;101237.53;5027647;28;20060;-76
2021/09/16 00:10:01;;;;;;;3.78;0.85;;;;;;;15.68;76.35;101240.50;5012349;28;20057;-76
2021/09/16 00:12:28;;;;;;;2.42;0.80;;;;;;;15.57;76.46;101238.31;5017208;28;20029;-76
2021/09/16 00:14:53;;;;;;;5.03;0.98;;;;;;;15.49;76.88;101248.88;5029107;28;20082;-77
2021/09/16 00:17:19;;;;;;;4.32;0.85;;;;;;;15.43;76.98;101252.19;5001391;28;20033;-76
2021/09/16 00:19:46;;;;;;;1.85;0.70;;;;;;;15.41;76.91;101259.38;4998349;28;20037;-76
2021/09/16 00:22:12;;;;;;;3.28;0.98;;;;;;;15.38;77.02;101253.50;4999337;28;20032;-77
2021/09/16 00:24:38;;;;;;;3.85;1.15;;;;;;;15.37;77.30;101258.94;5014091;28;20042;-77
2021/09/16 00:27:04;;;;;;;3.42;0.90;;;;;;;15.34;77.07;101252.25;5003945;28;20092;-78
2021/09/16 00:29:29;;;;;;;3.28;0.93;;;;;;;15.34;77.08;101246.22;4998346;28;20061;-79
2021/09/16 00:31:55;;;;;;;2.53;0.93;;;;;;;15.31;76.99;101257.00;5018614;28;20025;-78
2021/09/16 00:34:20;;;;;;;2.30;0.75;;;;;;;15.25;77.02;101250.69;4999665;28;20561;-78
2021/09/16 00:36:46;;;;;;;2.97;1.25;;;;;;;15.18;77.31;101258.44;5022503;28;20095;-79
2021/09/16 00:39:11;;;;;;;3.80;1.00;;;;;;;15.11;77.54;101261.91;5018933;28;20485;-79
2021/09/16 00:41:37;;;;;;;2.60;1.10;;;;;;;15.03;77.46;101254.13;5002939;28;20017;-78
2021/09/16 00:44:02;;;;;;;7.43;1.20;;;;;;;14.98;77.67;101259.88;5029624;28;20071;-78
2021/09/16 00:46:28;;;;;;;1.45;0.85;;;;;;;14.93;77.69;101259.56;5018641;28;20395;-78
2021/09/16 00:48:53;;;;;;;4.28;1.20;;;;;;;14.89;77.67;101263.53;5021521;28;20041;-78
2021/09/16 00:51:19;;;;;;;2.40;0.88;;;;;;;14.86;77.97;101264.69;5012290;28;20042;-78
2021/09/16 00:53:46;;;;;;;4.53;0.80;;;;;;;14.81;78.07;101259.16;5029544;28;20037;-78
2021/09/16 00:56:12;;;;;;;2.63;0.73;;;;;;;14.75;78.10;101260.66;5019647;28;20098;-79
2021/09/16 00:58:40;;;;;;;1.75;1.15;;;;;;;14.65;78.19;101260.06;5006539;28;20033;-78
2021/09/16 01:01:06;;;;;;;4.35;0.82;;;;;;;14.53;78.77;101267.44;5021326;28;20094;-79
2021/09/16 01:03:32;;;;;;;2.80;0.90;;;;;;;14.49;79.09;101260.94;5025079;28;20506;-80
2021/09/16 01:05:58;;;;;;;5.15;0.93;;;;;;;14.42;79.17;101259.97;5014221;28;20037;-79
2021/09/16 01:08:24;;;;;;;4.75;1.42;;;;;;;14.40;79.48;101259.34;4995158;28;20033;-79
2021/09/16 01:10:49;;;;;;;4.60;1.00;;;;;;;14.39;79.46;101260.31;5032287;28;20064;-79
2021/09/16 01:13:16;;;;;;;5.40;1.10;;;;;;;14.39;79.63;101261.16;5011700;28;20091;-79
2021/09/16 01:15:45;;;;;;;7.78;1.33;;;;;;;14.37;79.48;101264.88;5019278;28;20498;-80
2021/09/16 01:18:11;;;;;;;7.18;1.80;;;;;;;14.30;79.69;101267.38;5018554;28;20087;-79
2021/09/16 01:20:38;;;;;;;9.35;1.30;;;;;;;14.25;80.00;101274.09;5011725;28;20501;-78
2021/09/16 01:23:03;;;;;;;7.05;1.50;;;;;;;14.24;79.98;101275.03;5011738;28;20398;-80
2021/09/16 01:25:30;;;;;;;4.07;1.35;;;;;;;14.23;80.21;101279.47;4998595;28;20033;-79
2021/09/16 01:27:58;;;;;;;6.32;2.30;;;;;;;14.18;80.28;101269.53;5044681;28;20033;-79
2021/09/16 01:30:24;;;;;;;4.50;1.85;;;;;;;14.15;80.44;101269.88;5011891;28;20066;-79
2021/09/16 01:32:50;;;;;;;7.05;1.65;;;;;;;14.10;80.72;101276.56;5003131;28;20029;-78
2021/09/16 01:35:17;;;;;;;5.72;1.17;;;;;;;14.08;80.72;101281.94;5011522;28;20040;-79
2021/09/16 01:37:42;;;;;;;4.03;1.23;;;;;;;14.04;80.76;101280.66;5014362;28;20522;-78
2021/09/16 01:40:09;;;;;;;4.47;1.10;;;;;;;13.99;80.81;101272.50;5013360;28;20029;-79
2021/09/16 01:42:34;;;;;;;3.92;1.30;;;;;;;13.95;81.10;101279.84;5032660;28;20541;-79
2021/09/16 01:45:00;;;;;;;7.55;1.27;;;;;;;13.93;81.20;101279.22;4995820;28;20044;-79
2021/09/16 01:47:25;;;;;;;2.85;1.48;;;;;;;13.88;81.17;101283.28;5013837;28;20029;-79
2021/09/16 01:49:51;;;;;;;9.05;1.48;;;;;;;13.83;81.11;101286.41;5011439;28;20107;-80
2021/09/16 01:52:16;;;;;;;8.27;1.70;;;;;;;13.79;81.20;101292.94;5011250;28;20296;-79
2021/09/16 01:54:43;;;;;;;5.78;1.60;;;;;;;13.73;81.67;101301.38;5027612;28;20045;-79
2021/09/16 01:57:09;;;;;;;4.00;1.63;;;;;;;13.67;81.95;101292.44;5031561;28;20037;-79
2021/09/16 01:59:35;;;;;;;10.55;1.83;;;;;;;13.70;81.97;101310.38;5013776;28;20052;-79
2021/09/16 02:02:00;;;;;;;4.60;1.42;;;;;;;13.63;82.35;101306.78;4996317;28;20044;-78
2021/09/16 02:04:26;;;;;;;5.70;1.73;;;;;;;13.61;82.58;101300.91;5000078;28;20036;-79
2021/09/16 02:06:52;;;;;;;7.45;1.90;;;;;;;13.56;82.58;101306.63;4997289;28;20450;-78
2021/09/16 02:09:17;;;;;;;8.40;3.17;;;;;;;13.51;82.90;101303.69;5030216;28;20037;-79
2021/09/16 02:11:43;;;;;;;6.93;2.13;;;;;;;13.48;82.99;101311.00;5031082;28;20025;-78
2021/09/16 02:14:08;;;;;;;7.00;2.35;;;;;;;13.49;82.80;101312.66;5010748;28;20039;-78
2021/09/16 02:16:34;;;;;;;4.32;1.63;;;;;;;13.42;82.98;101308.06;5011581;28;20037;-78
2021/09/16 02:18:59;;;;;;;2.90;1.50;;;;;;;13.39;83.47;101312.78;5018172;28;20041;-79
2021/09/16 02:21:25;;;;;;;4.95;1.80;;;;;;;13.35;83.34;101317.50;5013607;28;20041;-79
2021/09/16 02:23:50;;;;;;;8.60;2.05;;;;;;;13.31;83.71;101312.81;5014344;28;20037;-79
2021/09/16 02:26:16;;;;;;;9.02;1.67;;;;;;;13.31;83.85;101313.59;5038094;28;20128;-78
2021/09/16 02:28:41;;;;;;;7.28;2.38;;;;;;;13.30;83.83;101318.94;5022032;28;20498;-78
2021/09/16 02:31:07;;;;;;;5.32;2.22;;;;;;;13.29;83.87;101323.34;5014608;28;20041;-78
2021/09/16 02:33:33;;;;;;;4.45;1.65;;;;;;;13.30;83.85;101322.41;5019009;28;20033;-79
2021/09/16 02:35:59;;;;;;;7.10;2.15;;;;;;;13.30;83.51;101317.19;5015534;28;20045;-78
2021/09/16 02:38:25;;;;;;;5.07;2.10;;;;;;;13.27;83.54;101320.09;5009411;28;20473;-79
2021/09/16 02:40:51;;;;;;;5.70;2.30;;;;;;;13.22;83.74;101317.97;5018942;28;20041;-78
2021/09/16 02:43:17;;;;;;;6.10;2.55;;;;;;;13.23;83.44;101321.38;5003577;28;20029;-79
2021/09/16 02:45:42;;;;;;;5.88;1.92;;;;;;;13.18;83.97;101332.25;5018305;28;20053;-78
2021/09/16 02:48:08;;;;;;;5.30;2.70;;;;;;;13.13;83.96;101334.56;5019664;28;20038;-78
2021/09/16 02:50:34;;;;;;;6.75;2.88;;;;;;;13.13;84.01;101337.16;5023714;28;20029;-78
2021/09/16 02:52:59;;;;;;;7.22;2.50;;;;;;;13.10;84.13;101336.66;5023308;28;20068;-78
2021/09/16 02:55:25;;;;;;;6.63;2.50;;;;;;;13.11;84.08;101340.88;5017654;28;20017;-78
2021/09/16 02:57:50;;;;;;;6.30;2.38;;;;;;;13.09;83.99;101353.25;5019958;28;20250;-78
2021/09/16 03:00:16;;;;;;;7.00;2.65;;;;;;;13.05;84.29;101348.38;5006857;28;20021;-78
2021/09/16 03:02:41;;;;;;;9.23;2.83;;;;;;;13.11;83.85;101348.69;5020178;28;20233;-78
2021/09/16 03:05:07;;;;;;;8.52;2.53;;;;;;;13.07;84.28;101347.38;5006401;28;20387;-78
2021/09/16 03:07:33;;;;;;;5.57;2.63;;;;;;;13.01;84.70;101354.84;5015043;28;20415;-78
2021/09/16 03:09:59;;;;;;;9.05;3.00;;;;;;;13.00;84.65;101342.00;5015022;28;20037;-78
2021/09/16 03:12:24;;;;;;;9.02;3.92;;;;;;;13.05;84.72;101348.38;5002458;28;20041;-78
2021/09/16 03:14:49;;;;;;;7.80;3.00;;;;;;;13.05;84.87;101350.97;4999918;28;20464;-78
2021/09/16 03:17:15;;;;;;;4.80;2.83;;;;;;;13.05;84.97;101345.78;5024314;28;20033;-78
2021/09/16 03:19:40;;;;;;;7.18;3.00;;;;;;;13.07;85.22;101348.19;5005161;28;20037;-78
2021/09/16 03:22:06;;;;;;;9.63;3.08;;;;;;;13.04;84.93;101349.34;4998723;28;20042;-77
2021/09/16 03:24:31;;;;;;;8.75;3.90;;;;;;;13.00;84.99;101342.00;5023182;28;20037;-78
2021/09/16 03:26:57;;;;;;;9.48;3.35;;;;;;;13.00;85.45;101342.00;5015314;28;20418;-77
2021/09/16 03:29:22;;;;;;;8.65;3.35;;;;;;;12.99;85.62;101343.78;5018364;28;20029;-79
2021/09/16 03:31:49;;;;;;;7.60;3.55;;;;;;;13.03;85.79;101334.69;5015532;28;20037;-78
2021/09/16 03:34:14;;;;;;;7.75;4.03;;;;;;;12.99;85.56;101340.38;5015933;28;20043;-77
2021/09/16 03:36:40;;;;;;;10.32;3.80;;;;;;;13.03;85.59;101345.13;5027019;28;20478;-78
2021/09/16 03:39:05;;;;;;;8.38;3.85;;;;;;;12.95;85.58;101342.47;5004385;28;20026;-78
2021/09/16 03:41:31;;;;;;;10.52;3.92;;;;;;;12.95;85.60;101341.66;5019889;28;20045;-77
2021/09/16 03:43:58;;;;;;;10.55;3.75;;;;;;;12.92;86.04;101349.78;5020115;28;20033;-78
2021/09/16 03:46:25;;;;;;;7.00;4.15;;;;;;;12.89;85.72;101344.91;5020906;28;20037;-78
2021/09/16 03:48:50;;;;;;;9.45;4.13;;;;;;;12.92;85.52;101349.78;5014249;28;20022;-79
2021/09/16 03:51:16;;;;;;;12.88;4.13;;;;;;;12.84;85.73;101340.16;5000132;28;20402;-77
2021/09/16 03:53:41;;;;;;;12.88;4.97;;;;;;;12.88;85.74;101346.66;5018262;28;20023;-78
2021/09/16 03:56:07;;;;;;;9.93;4.00;;;;;;;12.81;86.13;101348.28;5028816;28;20045;-77
2021/09/16 03:58:32;;;;;;;6.47;3.88;;;;;;;12.80;86.21;101339.66;5032280;28;20033;-78
2021/09/16 04:00:57;;;;;;;12.50;4.18;;;;;;;12.79;86.31;101343.25;5016686;28;20037;-78
2021/09/16 04:03:23;;;;;;;4.30;3.53;;;;;;;12.77;86.17;101340.00;5003889;28;20037;-78
2021/09/16 04:05:48;;;;;;;7.55;4.13;;;;;;;12.76;86.11;101338.34;5021143;28;20037;-78
2021/09/16 04:08:14;;;;;;;8.02;4.72;;;;;;;12.73;85.79;101343.84;5017942;28;20025;-78
2021/09/16 04:10:39;;;;;;;12.73;3.72;;;;;;;12.70;86.21;101340.78;4997262;28;20037;-78
2021/09/16 04:13:06;;;;;;;11.00;3.70;;;;;;;12.71;86.28;101351.00;5014914;28;20018;-78
2021/09/16 04:15:33;;;;;;;9.10;3.72;;;;;;;12.72;86.10;101351.84;5014809;28;20041;-78
2021/09/16 04:17:58;;;;;;;10.73;3.88;;;;;;;12.73;85.71;101350.84;5013053;28;20040;-78
2021/09/16 04:20:24;;;;;;;7.93;3.58;;;;;;;12.73;86.12;101337.84;4997829;28;20088;-78
2021/09/16 04:22:49;;;;;;;9.23;4.03;;;;;;;12.71;86.07;101347.59;5015737;28;20036;-78
2021/09/16 04:25:15;;;;;;;8.75;4.10;;;;;;;12.71;85.74;101345.00;5006208;28;20479;-79
2021/09/16 04:27:40;;;;;;;7.35;4.10;;;;;;;12.67;85.68;101344.47;5000949;28;20048;-79
2021/09/16 04:30:06;;;;;;;10.05;4.40;;;;;;;12.63;86.12;101343.97;5033596;28;20037;-78
2021/09/16 04:32:32;;;;;;;9.68;4.25;;;;;;;12.60;86.30;101344.31;5014789;28;20033;-79
2021/09/16 04:34:58;;;;;;;11.68;3.47;;;;;;;12.54;86.31;101341.50;4998030;28;20033;-78
2021/09/16 04:37:24;;;;;;;8.15;3.90;;;;;;;12.49;86.80;101343.75;5004770;28;20261;-78
2021/09/16 04:39:49;;;;;;;8.55;3.80;;;;;;;12.50;86.62;101337.59;4997620;28;20033;-79
2021/09/16 04:42:15;;;;;;;7.65;4.10;;;;;;;12.49;86.70;101334.19;5000829;28;20103;-79
2021/09/16 04:44:40;;;;;;;6.70;3.53;;;;;;;12.49;86.83;101339.38;5017874;28;20037;-80
2021/09/16 04:47:06;;;;;;;9.60;3.72;;;;;;;12.51;86.82;101349.59;5014177;28;20035;-79
2021/09/16 04:49:31;;;;;;;9.07;4.18;;;;;;;12.49;86.46;101346.34;5001844;28;20040;-79
2021/09/16 04:51:57;;;;;;;6.57;3.45;;;;;;;12.46;86.82;101353.50;4997437;28;20084;-79
2021/09/16 04:54:22;;;;;;;10.13;3.65;;;;;;;12.46;86.82;101358.69;5019437;28;20033;-77
2021/09/16 04:56:48;;;;;;;6.43;3.25;;;;;;;12.46;86.87;101353.50;5001148;28;20048;-78
2021/09/16 04:59:13;;;;;;;11.60;4.20;;;;;;;12.45;86.84;101351.88;4998369;28;20033;-78
2021/09/16 05:01:39;;;;;;;8.13;3.42;;;;;;;12.44;86.94;101358.03;4997432;28;20044;-79
2021/09/16 05:04:04;;;;;;;11.50;3.90;;;;;;;12.46;86.90;101355.28;5013852;28;20052;-78
2021/09/16 05:06:30;;;;;;;9.55;3.83;;;;;;;12.44;87.17;101352.03;5039287;28;20048;-78
2021/09/16 05:08:56;;;;;;;9.45;4.00;;;;;;;12.45;87.36;101359.69;4999758;28;20045;-77
2021/09/16 05:11:21;;;;;;;14.27;4.80;;;;;;;12.45;87.79;101358.84;5037502;28;20036;-78
2021/09/16 05:13:46;;;;;;;10.85;4.28;;;;;;;12.49;87.54;101357.59;5000216;28;20033;-78
2021/09/16 05:16:12;;;;;;;13.40;4.55;;;;;;;12.52;88.04;101364.25;5013708;28;20033;-77
2021/09/16 05:18:37;;;;;;;9.05;4.15;;;;;;;12.51;88.39;101368.66;5013315;28;20410;-80
2021/09/16 05:21:03;;;;;;;13.68;4.55;;;;;;;12.51;88.16;101370.41;5009883;28;20040;-79
2021/09/16 05:23:28;;;;;;;11.27;4.13;;;;;;;12.52;88.38;101370.25;5011910;28;20029;-76
2021/09/16 05:25:54;;;;;;;8.57;4.32;;;;;;;12.64;87.98;101373.44;5019858;28;20036;-77
2021/09/16 05:28:19;;;;;;;8.00;4.22;;;;;;;12.55;88.05;101369.97;5034398;28;20047;-78
2021/09/16 05:30:45;;;;;;;10.07;4.43;;;;;;;12.53;88.28;101377.09;4994843;28;20037;-76
2021/09/16 05:33:10;;;;;;;9.30;4.88;;;;;;;12.52;88.38;101377.25;4997279;28;20416;-81
2021/09/16 05:35:37;;;;;;;12.45;4.97;;;;;;;12.49;88.59;101378.41;4995737;28;20445;-79
2021/09/16 05:38:03;;;;;;;12.32;5.13;;;;;;;12.52;88.51;101388.47;5015200;28;20457;-77
2021/09/16 05:40:29;;;;;;;13.48;5.85;;;;;;;12.59;88.12;101373.88;5011195;28;20048;-77
2021/09/16 05:42:54;;;;;;;13.05;7.20;;;;;;;12.55;88.38;101379.56;4994724;28;20033;-77
2021/09/16 05:45:20;;;;;;;15.55;6.43;;;;;;;12.64;87.70;101384.66;4996802;28;20033;-80
2021/09/16 05:47:46;;;;;;;19.73;7.63;;;;;;;12.61;87.68;101384.94;5028279;28;20029;-79
2021/09/16 05:50:11;;;;;;;15.73;8.07;;;;;;;12.55;88.24;101395.97;4996384;28;20029;-78
2021/09/16 05:52:37;;;;;;;27.20;7.72;;;;;;;12.57;88.46;101393.22;5010744;28;20120;-78
2021/09/16 05:55:04;;;;;;;15.32;6.68;;;;;;;12.66;88.23;101393.09;5004036;28;20037;-78
2021/09/16 05:57:30;;;;;;;16.30;7.07;;;;;;;12.73;88.11;101397.69;5021689;28;20324;-78
2021/09/16 05:59:55;;;;;;;20.40;7.82;;;;;;;12.73;87.91;101392.47;5005107;28;20041;-78
2021/09/16 06:02:21;;;;;;;15.05;7.13;;;;;;;12.70;88.35;101395.41;5020685;28;20029;-78
2021/09/16 06:04:46;;;;;;;21.65;8.48;;;;;;;12.71;88.64;101397.84;5020395;28;20033;-78
2021/09/16 06:07:12;;;;;;;18.90;8.98;;;;;;;12.78;88.54;101398.84;5027016;28;20041;-78
2021/09/16 06:09:38;;;;;;;16.13;8.63;;;;;;;12.83;88.53;101394.00;5035274;28;20033;-77
2021/09/16 06:12:06;;;;;;;23.40;8.40;;;;;;;12.83;88.32;101391.41;5017221;28;20700;-78
2021/09/16 06:14:32;;;;;;;19.23;8.43;;;;;;;12.84;88.60;101393.00;5030466;28;20503;-77
2021/09/16 06:16:58;;;;;;;18.70;8.35;;;;;;;12.92;88.14;101397.47;5016642;28;20071;-77
2021/09/16 06:19:23;;;;;;;19.60;8.32;;;;;;;12.97;88.02;101399.59;5006388;28;20227;-78
2021/09/16 06:21:49;;;;;;;18.67;8.40;;;;;;;13.06;87.65;101403.84;5010610;28;20037;-78
2021/09/16 06:24:14;;;;;;;17.55;8.05;;;;;;;13.12;88.34;101405.00;5038475;28;20718;-77
2021/09/16 06:26:40;;;;;;;16.55;8.20;;;;;;;13.15;88.21;101402.09;5018131;28;20033;-78
2021/09/16 06:29:05;;;;;;;27.90;9.50;;;;;;;13.21;87.73;101397.06;5006063;28;20037;-77
2021/09/16 06:31:31;;;;;;;16.58;8.82;;;;;;;13.18;87.73;101406.97;5025213;28;20045;-76
2021/09/16 06:33:56;;;;;;;20.73;8.68;;;;;;;13.30;87.67;101403.16;5041073;28;20076;-78
2021/09/16 06:36:22;;;;;;;23.80;9.82;;;;;;;13.28;87.56;101404.22;5017740;28;20044;-78
2021/09/16 06:38:47;;;;;;;22.77;9.13;;;;;;;13.42;86.98;101399.25;5017159;28;20399;-78
2021/09/16 06:41:13;;;;;;;17.00;8.60;;;;;;;13.37;86.98;101411.97;5003483;28;20041;-75
2021/09/16 06:43:38;;;;;;;27.17;10.82;;;;;;;13.50;86.88;101411.47;5028654;28;20036;-77
2021/09/16 06:46:04;;;;;;;17.38;8.73;;;;;;;13.60;86.53;101406.94;5008919;28;20044;-76
2021/09/16 06:48:29;;;;;;;20.02;9.30;;;;;;;13.60;86.92;101417.38;5034225;28;20041;-77
2021/09/16 06:50:56;;;;;;;16.85;9.10;;;;;;;13.64;86.56;101417.88;5001008;28;20037;-77
2021/09/16 06:53:22;;;;;;;20.63;9.32;;;;;;;13.79;85.97;101410.22;5035069;28;20034;-77
2021/09/16 06:55:47;;;;;;;26.92;9.65;;;;;;;13.92;85.84;101409.72;5020167;28;20041;-78
2021/09/16 06:58:13;;;;;;;19.17;9.45;;;;;;;14.00;85.56;101414.94;5024751;28;20115;-78
2021/09/16 07:00:38;;;;;;;18.33;9.95;;;;;;;14.06;85.75;101411.69;5003161;28;20048;-79
2021/09/16 07:03:04;;;;;;;16.63;9.20;;;;;;;14.11;85.10;101414.63;5020738;28;20037;-78
2021/09/16 07:05:29;;;;;;;16.80;8.85;;;;;;;14.11;85.52;101413.78;5035249;28;20036;-78
2021/09/16 07:07:55;;;;;;;22.90;9.32;;;;;;;14.21;85.59;101411.84;5032390;28;20037;-82
2021/09/16 07:10:20;;;;;;;17.35;9.10;;;;;;;14.45;84.80;101410.97;4997391;28;20084;-77
2021/09/16 07:12:46;;;;;;;19.10;9.13;;;;;;;14.48;84.91;101408.03;5015633;28;20496;-77
2021/09/16 07:15:11;;;;;;;18.48;8.65;;;;;;;14.54;84.75;101409.16;5013645;28;20033;-78
2021/09/16 07:17:37;;;;;;;18.05;9.75;;;;;;;14.50;84.47;101416.50;5001380;28;20037;-79
2021/09/16 07:20:03;;;;;;;23.02;10.18;;;;;;;14.54;84.56;101420.44;5008462;28;20029;-77
2021/09/16 07:22:29;;;;;;;16.20;9.27;;;;;;;14.60;84.01;101419.78;5031076;28;20033;-78
2021/09/16 07:24:54;;;;;;;18.85;8.73;;;;;;;14.70;84.53;101422.19;4996698;28;20064;-77
2021/09/16 07:27:20;;;;;;;15.32;8.25;;;;;;;14.79;84.58;101426.41;5027842;28;20033;-77
2021/09/16 07:29:45;;;;;;;21.20;9.35;;;;;;;14.93;83.05;101421.47;5015366;28;20037;-77
2021/09/16 07:32:11;;;;;;;21.15;8.75;;;;;;;15.14;82.55;101421.72;5021224;28;20060;-78
2021/09/16 07:34:37;;;;;;;17.13;8.77;;;;;;;15.57;80.96;101416.84;5031184;28;20400;-76
2021/09/16 07:37:02;;;;;;;16.88;8.00;;;;;;;16.38;77.94;101412.97;5013590;28;20096;-77
2021/09/16 07:39:28;;;;;;;11.00;6.70;;;;;;;17.09;74.98;101408.06;5010117;28;20589;-77
2021/09/16 07:41:53;;;;;;;17.33;8.38;;;;;;;17.20;73.13;101407.59;5013939;28;20037;-77
2021/09/16 07:44:19;;;;;;;12.27;6.72;;;;;;;17.04;73.66;101420.91;5021538;28;20541;-76
2021/09/16 07:46:44;;;;;;;12.77;6.93;;;;;;;17.07;73.67;101415.31;5012619;28;20041;-81
2021/09/16 07:49:10;;;;;;;12.48;6.53;;;;;;;17.48;72.86;101422.59;5030789;28;20041;-77
2021/09/16 07:51:35;;;;;;;14.20;6.28;;;;;;;17.56;70.99;101432.16;5030080;28;20029;-77
2021/09/16 07:54:01;;;;;;;9.23;5.28;;;;;;;18.01;70.31;101420.47;5004188;28;20372;-78
2021/09/16 07:56:26;;;;;;;12.65;5.82;;;;;;;18.82;67.91;101417.34;5013625;28;20114;-77
2021/09/16 07:58:52;;;;;;;11.68;5.03;;;;;;;19.40;64.74;101410.84;5038841;28;20060;-77
2021/09/16 08:01:17;;;;;;;12.82;5.40;;;;;;;20.09;63.62;101424.69;5030191;28;20057;-77
2021/09/16 08:03:43;;;;;;;12.63;4.97;;;;;;;20.21;62.41;101430.94;5029733;28;20033;-79
2021/09/16 08:06:09;;;;;;;13.43;4.85;;;;;;;19.22;64.54;101433.25;5019454;28;20033;-78
2021/09/16 08:08:35;;;;;;;13.80;4.70;;;;;;;18.60;66.37;101429.75;5034400;28;20034;-77
2021/09/16 08:11:00;;;;;;;13.07;5.15;;;;;;;18.39;68.11;101428.00;5013919;28;20033;-77
2021/09/16 08:13:26;;;;;;;9.70;4.60;;;;;;;18.84;66.73;101431.09;4999213;28;20487;-76
2021/09/16 08:15:53;;;;;;;12.50;4.95;;;;;;;18.91;66.72;101428.53;5032998;28;20478;-77
2021/09/16 08:18:19;;;;;;;11.10;4.88;;;;;;;18.71;66.84;101431.03;4995127;28;20060;-78
2021/09/16 08:20:48;;;;;;;10.77;5.25;;;;;;;18.23;68.39;101431.75;5013081;28;20471;-77
2021/09/16 08:23:18;;;;;;;11.30;5.07;;;;;;;18.06;69.39;101428.59;5015572;28;20087;-78
2021/09/16 08:25:44;;;;;;;8.25;3.90;;;;;;;18.09;69.38;101438.69;5021498;28;20040;-77
2021/09/16 08:28:09;;;;;;;9.38;3.50;;;;;;;18.73;67.80;101441.34;5011974;28;20033;-78
2021/09/16 08:30:35;;;;;;;10.85;3.78;;;;;;;19.22;66.28;101440.34;5038765;28;20044;-77
2021/09/16 08:33:01;;;;;;;12.85;4.20;;;;;;;20.03;64.08;101437.66;5030248;28;20124;-78
2021/09/16 08:35:27;;;;;;;8.60;4.45;;;;;;;20.41;62.66;101420.38;5029530;28;20128;-77
2021/09/16 08:37:53;;;;;;;10.73;3.78;;;;;;;20.84;61.04;101419.06;5011663;28;20088;-77
2021/09/16 08:40:19;;;;;;;11.77;3.88;;;;;;;21.18;60.08;101423.16;5035673;28;20282;-79
2021/09/16 08:42:45;;;;;;;10.73;3.25;;;;;;;21.74;58.92;101416.34;4999979;28;20414;-80
2021/09/16 08:45:14;;;;;;;9.18;2.88;;;;;;;22.01;56.35;101421.38;5015152;28;20037;-78
2021/09/16 08:47:44;;;;;;;9.18;3.03;;;;;;;22.25;55.57;101427.66;5015053;28;20477;-78
2021/09/16 08:50:11;;;;;;;11.02;2.58;;;;;;;22.30;55.49;101423.38;5016533;28;20039;-76
2021/09/16 08:52:43;;;;;;;9.18;2.88;;;;;;;22.19;54.54;101421.41;5032592;28;20045;-78
2021/09/16 08:55:11;;;;;;;7.70;2.88;;;;;;;22.20;55.12;101419.56;5012642;28;20446;-77
2021/09/16 08:57:40;;;;;;;5.78;2.40;;;;;;;22.52;55.20;101423.72;5019793;28;20029;-77
2021/09/16 09:00:16;;;;;;;6.00;2.10;;;;;;;21.90;53.48;101421.06;5007309;28;20064;-77
2021/09/16 09:02:45;;;;;;;5.88;1.40;;;;;;;21.80;53.47;101423.38;5021790;28;20037;-78
2021/09/16 09:05:11;;;;;;;3.63;1.38;;;;;;;21.60;54.44;101435.91;5032765;28;20360;-78
2021/09/16 09:07:39;;;;;;;5.43;2.00;;;;;;;21.66;53.80;101427.13;5013790;28;20310;-77
2021/09/16 09:10:05;;;;;;;9.70;1.50;;;;;;;21.71;54.66;101422.84;5021207;28;20138;-77
2021/09/16 09:12:36;;;;;;;7.63;1.83;;;;;;;21.74;53.10;101422.41;4996179;28;20045;-78
2021/09/16 09:15:05;;;;;;;6.60;1.90;;;;;;;21.85;53.41;101430.63;5012545;28;20053;-78
2021/09/16 09:17:33;;;;;;;4.53;1.90;;;;;;;21.61;54.28;101437.53;5013188;28;20118;-79
2021/09/16 09:20:01;;;;;;;4.82;1.83;;;;;;;21.46;53.26;101443.13;5004008;28;20051;-76
2021/09/16 09:22:33;;;;;;;5.07;1.38;;;;;;;21.68;53.78;101444.38;5021253;28;20034;-78
2021/09/16 09:25:12;;;;;;;2.03;1.05;;;;;;;21.94;53.09;101440.75;5011734;28;20048;-78
2021/09/16 09:27:49;;;;;;;5.18;1.63;;;;;;;22.07;52.35;101436.34;5011308;28;20464;-78
2021/09/16 09:30:19;;;;;;;3.45;1.15;;;;;;;22.01;53.09;101448.59;5012158;28;20060;-77
2021/09/16 09:32:54;;;;;;;8.25;2.40;;;;;;;21.67;54.15;101455.16;5010456;28;20034;-77
2021/09/16 09:35:34;;;;;;;5.47;1.50;;;;;;;21.45;54.01;101452.03;5001326;28;20033;-77
2021/09/16 09:38:20;;;;;;;2.97;1.30;;;;;;;21.17;55.57;101447.91;5027705;28;20034;-77
2021/09/16 09:40:49;;;;;;;4.38;1.35;;;;;;;21.14;55.51;101458.88;5016609;28;20418;-77
2021/09/16 09:43:25;;;;;;;6.50;1.73;;;;;;;20.97;54.19;101458.56;5019260;28;20390;-77
2021/09/16 09:46:07;;;;;;;6.47;2.08;;;;;;;21.24;55.54;101461.06;5014226;28;20044;-77
2021/09/16 09:48:37;;;;;;;6.07;2.20;;;;;;;21.74;54.70;101455.91;4994490;28;20084;-76
2021/09/16 09:51:06;;;;;;;4.95;1.88;;;;;;;21.86;53.29;101451.53;5028821;28;20034;-78
2021/09/16 09:53:39;;;;;;;5.50;1.52;;;;;;;21.79;53.76;101461.34;5028827;28;20049;-79
2021/09/16 09:56:14;;;;;;;7.32;1.92;;;;;;;21.11;55.05;101461.94;5028201;28;20025;-76
2021/09/16 09:58:40;;;;;;;5.57;1.65;;;;;;;21.05;54.90;101460.13;5028772;28;20099;-78
2021/09/16 10:01:28;;;;;;;6.05;1.70;;;;;;;20.76;54.52;101460.44;5018228;28;20025;-77
2021/09/16 10:03:54;;;;;;;7.65;2.10;;;;;;;20.62;55.53;101458.84;5026883;28;20060;-78
2021/09/16 10:06:20;;;;;;;7.82;1.80;;;;;;;20.36;57.04;101457.03;5019230;28;20338;-78
2021/09/16 10:09:09;;;;;;;4.85;1.50;;;;;;;20.67;56.21;101456.41;4997130;28;20064;-77
2021/09/16 10:11:40;;;;;;;7.45;1.80;;;;;;;20.57;56.34;101453.38;5013762;28;20110;-77
2021/09/16 10:14:06;;;;;;;4.07;1.80;;;;;;;20.35;57.26;101463.34;5010425;28;20025;-77
2021/09/16 10:16:31;;;;;;;7.25;2.05;;;;;;;20.24;57.49;101456.88;5010540;28;20541;-79
2021/09/16 10:18:57;;;;;;;8.32;2.22;;;;;;;20.48;57.68;101457.25;5010758;28;20037;-80
2021/09/16 10:21:23;;;;;;;4.35;2.08;;;;;;;20.72;57.21;101451.34;5023342;28;20032;-78
2021/09/16 10:23:52;;;;;;;7.40;1.90;;;;;;;20.71;56.39;101459.44;5017494;28;20467;-77
2021/09/16 10:26:38;;;;;;;7.28;2.10;;;;;;;20.48;56.69;101455.41;5028422;28;20068;-78
2021/09/16 10:29:24;;;;;;;4.72;2.20;;;;;;;20.33;58.27;101460.09;5014904;28;20426;-78
2021/09/16 10:31:50;;;;;;;3.95;1.65;;;;;;;20.23;57.88;101450.81;5017575;28;20045;-79
2021/09/16 10:34:45;;;;;;;9.32;1.83;;;;;;;19.98;58.07;101458.50;5014613;28;20060;-78
2021/09/16 10:37:16;;;;;;;9.63;2.47;;;;;;;20.21;56.02;101444.09;5020889;28;20506;-77
2021/09/16 10:39:43;;;;;;;2.80;1.27;;;;;;;20.07;56.73;101450.41;5017542;28;20068;-77
2021/09/16 10:42:09;;;;;;;5.70;1.45;;;;;;;20.01;57.97;101452.81;5025399;28;20037;-77
2021/09/16 10:44:35;;;;;;;3.22;1.10;;;;;;;20.10;58.20;101450.81;5014851;28;20039;-78
2021/09/16 10:47:21;;;;;;;5.28;1.60;;;;;;;19.99;58.43;101446.16;5030712;28;20037;-78
2021/09/16 10:49:48;;;;;;;4.25;1.73;;;;;;;20.23;57.93;101444.72;5013684;28;20486;-78
2021/09/16 10:52:14;;;;;;;4.60;1.58;;;;;;;20.55;56.89;101439.59;5022694;28;20116;-77
2021/09/16 10:54:45;;;;;;;4.13;1.70;;;;;;;20.58;56.69;101444.44;5023402;28;20378;-77
2021/09/16 10:57:28;;;;;;;4.57;1.67;;;;;;;20.91;56.52;101446.22;5004273;28;20033;-77
2021/09/16 10:59:54;;;;;;;4.32;1.80;;;;;;;20.51;54.95;101451.56;5020869;28;20033;-78
2021/09/16 11:02:21;;;;;;;2.78;1.52;;;;;;;20.43;57.24;101457.84;5032023;28;20443;-77
2021/09/16 11:04:59;;;;;;;3.30;1.70;;;;;;;20.17;57.64;101450.78;5022233;28;20040;-78
2021/09/16 11:07:30;;;;;;;4.40;1.73;;;;;;;20.12;58.22;101456.69;5024118;28;20048;-78
2021/09/16 11:09:56;;;;;;;6.25;1.77;;;;;;;20.12;57.83;101450.63;5015472;28;20041;-77
2021/09/16 11:12:31;;;;;;;4.55;1.73;;;;;;;20.25;57.52;101444.50;5000170;28;20029;-76
2021/09/16 11:14:57;;;;;;;3.63;1.73;;;;;;;20.17;54.35;101446.34;5038880;28;20351;-78
2021/09/16 11:17:27;;;;;;;3.60;1.30;;;;;;;20.10;57.11;101449.97;5016233;28;20064;-78
2021/09/16 11:19:52;;;;;;;8.70;1.48;;;;;;;20.23;57.74;101452.63;5017420;28;20520;-78